X  Schlie├čen METAR Luftfahrt Wetterdaten     LEZL Sevilla Airport
Temperatur
32°C Temperatur
15°C Taupunkt
36% Feuchtigkeit



Wind
13 KM/S
8 MPS
4 M/S
7 KTS



210°
SSW
Aktuelle Wetterlage

Klar Klar
Luftdruck 1013.88 (hPa) - 29.94 (inHg)
Sichtweite 6 (Meile) - 9.7 (Km)
Flughafen
Flughafen Code LEZL

Position : Sevilla Airport
Entfernung: 41 (Km)

Metar:
LEZL 192000Z 21007KT 180V240 CAVOK 32/15 Q1014 NOSIG

Zeit: 19-07-2024 22:00 CEST